Time;durP1;ratioP1;P1;durP2;ratioP2;P2;SDS_P1;SDS_P2;PMS_P1;PMS_P2;Temp;Humidity;BMP_temperature;BMP_pressure;BME280_temperature;BME280_humidity;BME280_pressure;Samples;Min_cycle;Max_cycle;Signal;HPM_P1;HPM_P2
2022/12/20 00:01:10;;;;;;;8.40;4.40;;;8.90;99.90;;;;;;5131097;27;20042;-64
2022/12/20 00:03:36;;;;;;;9.75;4.65;;;8.90;99.90;;;;;;5132059;27;20045;-63
2022/12/20 00:06:02;;;;;;;9.10;4.60;;;8.90;99.90;;;;;;5124520;27;20031;-62
2022/12/20 00:08:28;;;;;;;7.90;3.75;;;9.00;99.90;;;;;;5103501;28;20493;-62
2022/12/20 00:10:54;;;;;;;6.47;4.50;;;9.00;99.90;;;;;;5124941;27;20134;-62
2022/12/20 00:13:19;;;;;;;6.32;3.80;;;9.00;99.90;;;;;;5132322;27;20035;-63
2022/12/20 00:15:45;;;;;;;9.63;4.22;;;9.00;99.90;;;;;;5131678;27;20039;-62
2022/12/20 00:18:10;;;;;;;8.25;4.50;;;9.00;99.90;;;;;;5130155;27;21313;-62
2022/12/20 00:20:36;;;;;;;7.15;4.35;;;9.10;99.90;;;;;;5130279;27;20042;-62
2022/12/20 00:23:02;;;;;;;9.45;4.88;;;9.10;99.90;;;;;;5124095;27;20401;-63
2022/12/20 00:25:28;;;;;;;6.38;4.47;;;9.10;99.90;;;;;;5111420;27;20035;-62
2022/12/20 00:27:53;;;;;;;8.57;4.93;;;9.10;99.90;;;;;;5111785;27;20060;-62
2022/12/20 00:30:19;;;;;;;7.80;4.40;;;9.20;99.90;;;;;;5118846;27;20038;-62
2022/12/20 00:32:45;;;;;;;7.05;4.43;;;9.20;99.90;;;;;;5109029;27;21322;-63
2022/12/20 00:35:11;;;;;;;8.35;4.25;;;9.20;99.90;;;;;;5128141;27;20027;-62
2022/12/20 00:37:37;;;;;;;7.40;4.07;;;9.20;99.90;;;;;;5120453;27;20039;-61
2022/12/20 00:40:04;;;;;;;10.45;4.25;;;9.20;99.90;;;;;;5107940;27;20035;-62
2022/12/20 00:42:30;;;;;;;10.60;4.97;;;9.20;99.90;;;;;;5114895;27;20570;-62
2022/12/20 00:44:56;;;;;;;7.65;4.43;;;9.20;99.90;;;;;;5119717;27;20040;-62
2022/12/20 00:47:21;;;;;;;8.70;4.97;;;9.20;99.90;;;;;;5120328;27;20040;-60
2022/12/20 00:49:47;;;;;;;6.35;4.00;;;9.10;99.90;;;;;;5119930;27;20029;-59
2022/12/20 00:52:13;;;;;;;7.15;4.32;;;9.10;99.90;;;;;;5110248;27;20474;-60
2022/12/20 00:54:38;;;;;;;5.90;4.20;;;9.20;99.90;;;;;;5104155;28;20046;-59
2022/12/20 00:57:04;;;;;;;7.88;4.30;;;9.20;99.90;;;;;;5116691;27;20592;-59
2022/12/20 00:59:31;;;;;;;8.20;4.50;;;9.10;99.90;;;;;;5104628;28;20040;-60
2022/12/20 01:01:57;;;;;;;5.47;3.85;;;9.10;99.90;;;;;;5123904;27;20050;-62
2022/12/20 01:04:22;;;;;;;8.43;4.28;;;9.10;99.90;;;;;;5102354;27;20047;-59
2022/12/20 01:06:48;;;;;;;6.47;3.85;;;9.10;99.90;;;;;;5120490;27;20078;-60
2022/12/20 01:09:14;;;;;;;8.02;4.95;;;9.00;99.90;;;;;;5107509;28;20351;-60
2022/12/20 01:11:39;;;;;;;7.32;4.32;;;9.00;99.90;;;;;;5119284;27;20062;-62
2022/12/20 01:14:11;;;;;;;5.85;4.05;;;9.10;99.90;;;;;;5120199;27;20035;-62
2022/12/20 01:16:43;;;;;;;8.05;3.90;;;9.10;99.90;;;;;;5128006;27;20043;-61
2022/12/20 01:19:12;;;;;;;7.32;4.50;;;9.10;99.90;;;;;;5127266;27;20057;-61
2022/12/20 01:21:43;;;;;;;6.05;4.00;;;9.10;99.90;;;;;;5124069;27;20035;-60
2022/12/20 01:24:09;;;;;;;7.82;4.30;;;9.10;99.90;;;;;;5125631;28;20036;-61
2022/12/20 01:26:35;;;;;;;10.30;4.25;;;9.20;99.90;;;;;;5129723;28;20047;-62
2022/12/20 01:29:01;;;;;;;8.43;4.07;;;9.20;99.90;;;;;;5120811;28;20036;-62
2022/12/20 01:31:28;;;;;;;7.30;3.70;;;9.20;99.90;;;;;;5118322;28;20036;-62
2022/12/20 01:33:54;;;;;;;8.55;4.03;;;9.20;99.90;;;;;;5128221;28;20041;-60
2022/12/20 01:36:25;;;;;;;6.82;4.40;;;9.20;99.90;;;;;;5106930;28;20031;-62
2022/12/20 01:38:56;;;;;;;6.90;4.03;;;9.20;99.90;;;;;;5094457;28;20047;-61
2022/12/20 01:41:22;;;;;;;7.45;3.92;;;9.30;99.90;;;;;;5121742;27;20127;-60
2022/12/20 01:43:54;;;;;;;8.05;4.15;;;9.20;99.90;;;;;;5121116;28;20043;-60
2022/12/20 01:46:23;;;;;;;6.00;3.78;;;9.20;99.90;;;;;;5107992;28;20314;-62
2022/12/20 01:49:04;;;;;;;6.90;4.07;;;9.20;99.90;;;;;;5119139;28;20534;-60
2022/12/20 01:51:34;;;;;;;7.40;3.88;;;9.20;99.90;;;;;;5120645;27;20046;-61
2022/12/20 01:54:22;;;;;;;7.80;3.90;;;9.30;99.90;;;;;;5110411;28;20039;-61
2022/12/20 01:56:53;;;;;;;8.07;4.00;;;9.20;99.90;;;;;;5102833;28;20115;-62
2022/12/20 01:59:19;;;;;;;7.68;3.85;;;9.40;99.90;;;;;;5124554;28;20051;-61
2022/12/20 02:01:45;;;;;;;5.43;3.67;;;9.30;99.90;;;;;;5125306;28;20117;-61
2022/12/20 02:04:11;;;;;;;6.47;3.65;;;9.20;99.90;;;;;;5124762;28;20106;-60
2022/12/20 02:06:36;;;;;;;6.00;3.90;;;9.20;99.90;;;;;;5121749;28;20493;-60
2022/12/20 02:09:04;;;;;;;6.70;3.90;;;9.20;99.90;;;;;;5125282;28;20035;-62
2022/12/20 02:11:33;;;;;;;6.43;3.60;;;9.30;99.90;;;;;;5129712;27;20031;-62
2022/12/20 02:14:12;;;;;;;5.60;3.30;;;9.30;99.90;;;;;;5120857;27;20119;-62
2022/12/20 02:16:48;;;;;;;9.40;4.78;;;9.30;99.90;;;;;;5129734;27;20088;-60
2022/12/20 02:19:13;;;;;;;7.57;3.65;;;9.30;99.90;;;;;;5121812;27;20036;-61
2022/12/20 02:21:46;;;;;;;6.45;3.80;;;9.30;99.90;;;;;;5121620;27;20028;-62
2022/12/20 02:24:44;;;;;;;5.88;3.50;;;9.30;99.90;;;;;;5123913;27;20074;-61
2022/12/20 02:27:33;;;;;;;6.28;3.70;;;9.30;99.90;;;;;;5122762;27;20505;-62
2022/12/20 02:30:09;;;;;;;6.18;3.85;;;9.40;99.90;;;;;;5113589;27;20408;-61
2022/12/20 02:32:41;;;;;;;7.35;4.03;;;9.40;99.90;;;;;;5129876;27;20035;-62
2022/12/20 02:35:09;;;;;;;6.73;3.57;;;9.40;99.90;;;;;;5112108;27;20039;-65
2022/12/20 02:37:35;;;;;;;6.32;3.95;;;9.40;99.90;;;;;;5130817;27;20287;-62
2022/12/20 02:40:02;;;;;;;7.28;3.72;;;9.40;99.90;;;;;;5123022;27;20035;-62
2022/12/20 02:42:29;;;;;;;6.80;3.80;;;9.40;99.90;;;;;;5126724;27;20161;-59
2022/12/20 02:45:14;;;;;;;6.38;3.30;;;9.40;99.90;;;;;;5121547;27;20057;-61
2022/12/20 02:47:57;;;;;;;6.90;4.13;;;9.50;99.90;;;;;;5132574;27;20382;-60
2022/12/20 02:50:31;;;;;;;7.20;3.72;;;9.50;99.90;;;;;;5118547;27;20072;-62
2022/12/20 02:52:58;;;;;;;9.35;4.15;;;9.50;99.90;;;;;;5124667;27;20136;-62
2022/12/20 02:55:39;;;;;;;8.13;4.03;;;9.50;99.90;;;;;;5126473;27;20067;-62
2022/12/20 02:58:17;;;;;;;12.00;4.20;;;9.50;99.90;;;;;;5123308;27;20043;-61
2022/12/20 03:00:47;;;;;;;8.30;3.83;;;9.50;99.90;;;;;;5109614;27;20039;-61
2022/12/20 03:03:22;;;;;;;7.97;4.25;;;9.50;99.90;;;;;;5126068;27;20520;-61
2022/12/20 03:05:49;;;;;;;8.20;4.07;;;9.50;99.90;;;;;;5106423;27;20425;-62
2022/12/20 03:08:15;;;;;;;4.97;3.40;;;9.50;99.90;;;;;;5109962;27;20500;-61
2022/12/20 03:10:42;;;;;;;7.30;4.00;;;9.40;99.90;;;;;;5132586;27;20027;-61
2022/12/20 03:13:07;;;;;;;7.57;3.95;;;9.40;99.90;;;;;;5103040;28;20482;-62
2022/12/20 03:15:33;;;;;;;7.75;4.00;;;9.40;99.90;;;;;;5130839;27;20027;-62
2022/12/20 03:17:59;;;;;;;9.63;4.13;;;9.40;99.90;;;;;;5130179;27;20393;-62
2022/12/20 03:20:25;;;;;;;8.15;4.00;;;9.40;99.90;;;;;;5108580;27;20036;-61
2022/12/20 03:22:50;;;;;;;6.82;3.80;;;9.40;99.90;;;;;;5129888;27;20031;-62
2022/12/20 03:25:16;;;;;;;7.18;4.13;;;9.40;99.90;;;;;;5125978;27;20031;-61
2022/12/20 03:27:41;;;;;;;6.95;3.72;;;9.40;99.90;;;;;;5116437;27;20031;-61
2022/12/20 03:30:08;;;;;;;8.43;4.32;;;9.40;99.90;;;;;;5119053;27;20148;-60
2022/12/20 03:32:33;;;;;;;9.35;4.22;;;9.40;99.90;;;;;;5119421;27;20035;-61
2022/12/20 03:34:59;;;;;;;10.27;4.22;;;9.40;99.90;;;;;;5129519;27;20037;-60
2022/12/20 03:37:25;;;;;;;8.38;4.00;;;9.40;99.90;;;;;;5126930;27;20220;-60
2022/12/20 03:39:50;;;;;;;9.48;4.15;;;9.40;99.90;;;;;;5127270;27;20070;-61
2022/12/20 03:42:16;;;;;;;8.40;4.43;;;9.40;99.90;;;;;;5125215;27;20079;-61
2022/12/20 03:44:41;;;;;;;8.00;4.20;;;9.40;99.90;;;;;;5120627;27;20524;-63
2022/12/20 03:47:07;;;;;;;7.25;4.15;;;9.40;99.90;;;;;;5131985;27;20046;-60
2022/12/20 03:49:33;;;;;;;5.68;4.00;;;9.40;99.90;;;;;;5110108;27;20473;-60
2022/12/20 03:51:58;;;;;;;7.35;4.22;;;9.40;99.90;;;;;;5121817;27;20042;-60
2022/12/20 03:54:24;;;;;;;10.02;4.03;;;9.40;99.90;;;;;;5113252;27;20061;-61
2022/12/20 03:56:50;;;;;;;6.22;4.32;;;9.40;99.90;;;;;;5107444;28;20039;-60
2022/12/20 03:59:15;;;;;;;9.15;4.50;;;9.40;99.90;;;;;;5124648;27;20385;-60
2022/12/20 04:01:41;;;;;;;7.28;4.43;;;9.40;99.90;;;;;;5119096;27;20027;-61
2022/12/20 04:04:09;;;;;;;9.35;4.75;;;9.40;99.90;;;;;;5121008;27;20058;-61
2022/12/20 04:06:34;;;;;;;8.18;4.50;;;9.40;99.90;;;;;;5111966;27;20404;-60
2022/12/20 04:09:00;;;;;;;7.72;4.43;;;9.40;99.90;;;;;;5119111;27;20035;-60
2022/12/20 04:11:25;;;;;;;9.57;4.38;;;9.40;99.90;;;;;;5111821;28;20060;-60
2022/12/20 04:13:52;;;;;;;9.40;5.20;;;9.40;99.90;;;;;;5128610;27;20060;-59
2022/12/20 04:16:21;;;;;;;6.55;4.57;;;9.40;99.90;;;;;;5126454;27;20378;-59
2022/12/20 04:18:46;;;;;;;7.22;4.65;;;9.40;99.90;;;;;;5110671;27;20046;-61
2022/12/20 04:21:13;;;;;;;7.22;4.93;;;9.40;99.90;;;;;;5128483;27;20401;-59
2022/12/20 04:23:41;;;;;;;7.05;4.57;;;9.40;99.90;;;;;;5095741;27;20048;-60
2022/12/20 04:26:09;;;;;;;8.10;5.15;;;9.40;99.90;;;;;;5128755;27;20465;-59
2022/12/20 04:28:35;;;;;;;8.35;4.80;;;9.40;99.90;;;;;;5110842;27;20039;-59
2022/12/20 04:31:01;;;;;;;10.63;4.80;;;9.40;99.90;;;;;;5126902;27;20481;-59
2022/12/20 04:33:27;;;;;;;7.78;4.55;;;9.50;99.90;;;;;;5130908;27;20078;-60
2022/12/20 04:35:54;;;;;;;9.07;5.07;;;9.40;99.90;;;;;;5105259;27;20538;-60
2022/12/20 04:38:20;;;;;;;6.75;4.25;;;9.40;99.90;;;;;;5122963;27;20040;-59
2022/12/20 04:40:51;;;;;;;8.55;4.72;;;9.40;99.90;;;;;;5126693;27;20051;-59
2022/12/20 04:43:17;;;;;;;7.80;4.25;;;9.40;99.90;;;;;;5123111;27;20035;-61
2022/12/20 04:45:43;;;;;;;8.00;4.50;;;9.40;99.90;;;;;;5131245;27;20039;-61
2022/12/20 04:48:10;;;;;;;10.63;4.78;;;9.50;99.90;;;;;;5096468;27;20070;-62
2022/12/20 04:50:36;;;;;;;7.47;4.28;;;9.50;99.90;;;;;;5106686;27;20039;-60
2022/12/20 04:55:46;;;;;;;5.93;4.03;;;9.60;99.90;;;;;;5118004;27;20130;-61
2022/12/20 04:58:11;;;;;;;6.70;4.80;;;9.60;99.90;;;;;;5124374;27;20106;-60
2022/12/20 05:00:37;;;;;;;7.10;4.57;;;9.70;99.90;;;;;;5112270;27;20588;-62
2022/12/20 05:03:03;;;;;;;7.45;4.70;;;9.70;99.90;;;;;;5119426;27;20066;-61
2022/12/20 05:05:28;;;;;;;10.25;4.78;;;9.70;99.90;;;;;;5110716;28;20505;-61
2022/12/20 05:07:54;;;;;;;10.40;4.72;;;9.70;99.90;;;;;;5106196;27;20042;-61
2022/12/20 05:10:20;;;;;;;7.22;4.43;;;9.70;99.90;;;;;;5122560;27;20447;-61
2022/12/20 05:12:45;;;;;;;8.73;4.60;;;9.80;99.90;;;;;;5119819;27;20035;-62
2022/12/20 05:15:11;;;;;;;6.95;4.10;;;9.90;99.90;;;;;;5110793;28;20466;-62
2022/12/20 05:17:37;;;;;;;9.57;4.63;;;9.80;99.90;;;;;;5114324;28;20038;-62
2022/12/20 05:20:04;;;;;;;6.60;4.15;;;9.80;99.90;;;;;;5128577;27;20027;-61
2022/12/20 05:27:58;;;;;;;6.57;4.00;;;9.90;99.90;;;;;;5122229;28;20063;-61
2022/12/20 05:30:25;;;;;;;6.07;4.25;;;9.90;99.90;;;;;;5117131;28;20202;-62
2022/12/20 05:32:50;;;;;;;6.72;3.75;;;9.90;99.90;;;;;;5121110;28;20385;-59
2022/12/20 05:35:16;;;;;;;7.55;4.28;;;10.00;99.90;;;;;;5122679;28;20228;-60
2022/12/20 05:37:42;;;;;;;5.60;3.60;;;10.00;99.90;;;;;;5127216;28;20087;-60
2022/12/20 05:40:08;;;;;;;8.02;4.03;;;10.10;99.90;;;;;;5130268;28;20118;-61
2022/12/20 05:42:34;;;;;;;6.75;4.10;;;10.10;99.90;;;;;;5105012;28;20036;-60
2022/12/20 05:45:00;;;;;;;7.97;3.90;;;10.10;99.90;;;;;;5110123;28;20051;-60
2022/12/20 05:47:26;;;;;;;5.63;4.03;;;10.20;99.90;;;;;;5131795;27;20035;-60
2022/12/20 05:49:52;;;;;;;7.85;3.80;;;10.20;99.90;;;;;;5110698;27;20088;-61
2022/12/20 05:52:17;;;;;;;7.97;3.58;;;10.10;99.90;;;;;;5132182;27;20031;-60
2022/12/20 05:54:43;;;;;;;8.48;3.58;;;10.20;99.90;;;;;;5131807;27;20489;-62
2022/12/20 05:57:09;;;;;;;6.35;4.00;;;10.20;99.90;;;;;;5127601;27;20043;-60
2022/12/20 05:59:35;;;;;;;7.05;3.50;;;10.20;99.90;;;;;;5127476;27;20030;-61
2022/12/20 06:02:00;;;;;;;7.60;3.95;;;10.20;99.90;;;;;;5129621;27;20023;-60
2022/12/20 06:04:26;;;;;;;8.32;3.95;;;10.30;99.90;;;;;;5131085;27;20035;-60
2022/12/20 06:06:52;;;;;;;7.82;3.58;;;10.30;99.90;;;;;;5128237;27;20481;-62
2022/12/20 06:09:17;;;;;;;8.32;3.33;;;10.30;99.90;;;;;;5130188;27;20032;-62
2022/12/20 06:11:43;;;;;;;6.47;3.85;;;10.30;99.90;;;;;;5132206;27;20027;-60
2022/12/20 06:14:09;;;;;;;6.90;4.28;;;10.30;99.90;;;;;;5128485;27;20031;-60
2022/12/20 06:16:35;;;;;;;5.97;3.65;;;10.30;99.90;;;;;;5128556;27;20071;-61
2022/12/20 06:19:01;;;;;;;7.32;3.90;;;10.30;99.90;;;;;;5105627;27;20059;-60
2022/12/20 06:21:27;;;;;;;6.63;3.92;;;10.40;99.90;;;;;;5116470;27;20047;-60
2022/12/20 06:23:53;;;;;;;8.07;3.95;;;10.30;99.90;;;;;;5123038;27;20039;-60
2022/12/20 06:26:21;;;;;;;6.35;3.88;;;10.30;99.90;;;;;;5131875;27;20039;-60
2022/12/20 06:28:51;;;;;;;6.13;4.20;;;10.30;99.90;;;;;;5133380;27;20031;-61
2022/12/20 06:31:17;;;;;;;7.50;4.60;;;10.20;99.90;;;;;;5130901;27;20035;-61
2022/12/20 06:33:42;;;;;;;6.75;4.35;;;10.20;99.90;;;;;;5127684;27;20104;-61
2022/12/20 06:36:08;;;;;;;5.93;3.92;;;10.20;99.90;;;;;;5127859;27;20423;-61
2022/12/20 06:38:33;;;;;;;7.78;4.43;;;10.10;99.90;;;;;;5123673;27;20047;-60
2022/12/20 06:40:59;;;;;;;11.38;4.53;;;10.20;99.90;;;;;;5109917;27;20039;-60
2022/12/20 06:43:25;;;;;;;7.32;4.50;;;10.20;99.90;;;;;;5111707;27;20074;-61
2022/12/20 06:45:50;;;;;;;9.52;4.70;;;10.20;99.90;;;;;;5122263;27;20036;-62
2022/12/20 06:48:17;;;;;;;8.52;4.68;;;10.20;99.90;;;;;;5131275;27;20306;-59
2022/12/20 06:50:42;;;;;;;7.53;4.50;;;10.10;99.90;;;;;;5107986;27;20055;-61
2022/12/20 06:53:08;;;;;;;8.70;4.80;;;10.10;99.90;;;;;;5123510;27;20039;-61
2022/12/20 06:55:34;;;;;;;8.32;5.18;;;10.10;99.90;;;;;;5127275;27;20058;-60
2022/12/20 06:57:59;;;;;;;9.88;5.05;;;10.10;99.90;;;;;;5132316;27;20037;-61
2022/12/20 07:00:26;;;;;;;7.50;5.18;;;10.10;99.90;;;;;;5124521;27;20057;-62
2022/12/20 07:02:51;;;;;;;9.68;5.20;;;10.10;99.90;;;;;;5107639;27;20062;-61
2022/12/20 07:05:17;;;;;;;8.80;5.25;;;10.00;99.90;;;;;;5129640;27;20481;-62
2022/12/20 07:07:43;;;;;;;9.77;4.90;;;10.00;99.90;;;;;;5108348;27;20034;-60
2022/12/20 07:10:09;;;;;;;9.35;5.38;;;10.10;99.90;;;;;;5108230;27;20039;-61
2022/12/20 07:12:34;;;;;;;10.35;4.78;;;10.10;99.90;;;;;;5122614;27;20454;-61
2022/12/20 07:15:00;;;;;;;7.95;5.00;;;10.10;99.90;;;;;;5125460;27;20446;-60
2022/12/20 07:17:25;;;;;;;9.65;4.80;;;10.20;99.90;;;;;;5128843;27;20266;-61
2022/12/20 07:19:51;;;;;;;10.27;5.15;;;10.10;99.90;;;;;;5124437;27;20149;-59
2022/12/20 07:22:17;;;;;;;8.77;5.07;;;10.10;99.90;;;;;;5131156;27;20031;-61
2022/12/20 07:24:42;;;;;;;10.07;5.60;;;10.10;99.90;;;;;;5108579;27;20043;-61
2022/12/20 07:27:10;;;;;;;8.15;5.47;;;10.10;99.90;;;;;;5126760;27;20038;-61
2022/12/20 07:29:39;;;;;;;8.90;5.18;;;10.10;99.90;;;;;;5131272;27;20128;-62
2022/12/20 07:32:05;;;;;;;8.20;5.30;;;10.10;99.90;;;;;;5122534;27;20047;-60
2022/12/20 07:34:30;;;;;;;9.63;5.22;;;10.10;99.90;;;;;;5129800;27;20035;-60
2022/12/20 07:36:56;;;;;;;9.80;4.97;;;10.10;99.90;;;;;;5130415;27;20110;-61
2022/12/20 07:39:22;;;;;;;11.32;5.10;;;10.10;99.90;;;;;;5125737;27;20491;-60
2022/12/20 07:41:47;;;;;;;6.63;4.47;;;10.10;99.90;;;;;;5111653;27;20043;-61
2022/12/20 07:44:13;;;;;;;10.43;4.75;;;10.10;99.90;;;;;;5108703;27;20028;-61
2022/12/20 07:46:38;;;;;;;8.52;4.47;;;10.10;99.90;;;;;;5128036;27;20118;-61
2022/12/20 07:49:04;;;;;;;7.20;4.50;;;10.20;99.90;;;;;;5125442;27;20078;-61
2022/12/20 07:51:38;;;;;;;8.43;4.30;;;10.10;99.90;;;;;;5125760;27;20774;-60
2022/12/20 07:54:15;;;;;;;7.63;4.20;;;10.20;99.90;;;;;;5123277;27;20478;-62
2022/12/20 07:56:44;;;;;;;8.07;4.60;;;10.20;99.90;;;;;;5109390;27;20235;-61
2022/12/20 07:59:14;;;;;;;9.98;5.10;;;10.20;99.90;;;;;;5102373;27;20047;-61
2022/12/20 08:01:42;;;;;;;7.47;4.15;;;10.20;99.90;;;;;;5106539;27;20039;-61
2022/12/20 08:04:14;;;;;;;7.70;3.70;;;10.20;99.90;;;;;;5132373;27;20050;-61
2022/12/20 08:06:41;;;;;;;8.27;4.50;;;10.20;99.90;;;;;;5118829;27;20095;-61
2022/12/20 08:09:12;;;;;;;6.47;4.20;;;10.20;99.90;;;;;;5123514;27;20042;-61
2022/12/20 08:11:39;;;;;;;8.80;4.55;;;10.20;99.90;;;;;;5128411;27;20069;-61
2022/12/20 08:14:07;;;;;;;8.75;4.15;;;10.20;99.90;;;;;;5126125;27;20044;-61
2022/12/20 08:16:33;;;;;;;6.55;4.40;;;10.20;99.90;;;;;;5131995;27;20198;-60
2022/12/20 08:18:58;;;;;;;8.20;4.93;;;10.20;99.90;;;;;;5120911;27;20039;-61
2022/12/20 08:21:24;;;;;;;6.30;3.97;;;10.20;99.90;;;;;;5126162;27;20042;-60
2022/12/20 08:23:50;;;;;;;7.28;4.03;;;10.30;99.90;;;;;;5127742;27;20027;-61
2022/12/20 08:26:17;;;;;;;9.57;4.03;;;10.30;99.90;;;;;;5109997;27;20043;-61
2022/12/20 08:28:43;;;;;;;7.78;4.18;;;10.20;99.90;;;;;;5111412;27;20040;-61
2022/12/20 08:31:09;;;;;;;6.22;4.15;;;10.20;99.90;;;;;;5126036;27;20430;-61
2022/12/20 08:33:36;;;;;;;7.55;3.95;;;10.20;99.90;;;;;;5118126;27;20123;-60
2022/12/20 08:36:05;;;;;;;7.60;4.05;;;10.20;99.90;;;;;;5104041;27;20043;-61
2022/12/20 08:38:32;;;;;;;6.75;3.92;;;10.20;99.90;;;;;;5126125;27;20035;-60
2022/12/20 08:41:09;;;;;;;5.95;3.85;;;10.20;99.90;;;;;;5132450;27;20118;-60
2022/12/20 08:43:36;;;;;;;7.38;3.83;;;10.20;99.90;;;;;;5113172;27;20049;-61
2022/12/20 08:46:02;;;;;;;6.97;3.70;;;10.30;99.90;;;;;;5125732;27;20061;-61
2022/12/20 08:48:28;;;;;;;7.40;4.00;;;10.30;99.90;;;;;;5113632;27;20114;-61
2022/12/20 08:50:59;;;;;;;8.00;3.90;;;10.30;99.90;;;;;;5130578;27;20045;-60
2022/12/20 08:53:25;;;;;;;5.00;3.50;;;10.30;99.90;;;;;;5092849;28;20047;-61
2022/12/20 08:55:52;;;;;;;9.85;4.05;;;10.30;99.90;;;;;;5124200;27;20117;-60
2022/12/20 08:58:21;;;;;;;5.30;3.35;;;10.30;99.90;;;;;;5117909;27;20031;-61
2022/12/20 09:00:47;;;;;;;7.05;3.88;;;10.30;99.90;;;;;;5100261;27;20469;-61
2022/12/20 09:03:15;;;;;;;8.43;3.80;;;10.30;99.90;;;;;;5107742;27;20038;-62
2022/12/20 09:05:47;;;;;;;5.88;3.75;;;10.30;99.90;;;;;;5128058;27;20404;-61
2022/12/20 09:08:14;;;;;;;;;;;10.30;99.90;;;;;;5111228;28;20440;-61
2022/12/20 09:10:40;;;;;;;6.13;3.28;;;10.30;99.90;;;;;;5126320;27;19967;-61
2022/12/20 09:13:05;;;;;;;7.07;3.47;;;10.30;99.90;;;;;;5104833;27;20440;-62
2022/12/20 09:15:34;;;;;;;8.57;3.78;;;10.40;99.90;;;;;;5129003;27;20043;-61
2022/12/20 09:17:59;;;;;;;7.88;3.88;;;10.40;99.90;;;;;;5128626;27;20576;-62
2022/12/20 09:20:25;;;;;;;8.15;3.55;;;10.40;99.90;;;;;;5121248;27;20118;-61
2022/12/20 09:22:50;;;;;;;6.43;3.70;;;10.40;99.90;;;;;;5127230;27;20031;-61
2022/12/20 09:25:16;;;;;;;6.28;3.72;;;10.40;99.90;;;;;;5120102;28;20504;-61
2022/12/20 09:27:42;;;;;;;8.35;3.58;;;10.40;99.90;;;;;;5124296;28;20036;-61
2022/12/20 09:30:08;;;;;;;6.03;3.30;;;10.40;99.90;;;;;;5127538;28;20502;-61
2022/12/20 09:32:33;;;;;;;6.70;3.42;;;10.30;99.90;;;;;;5123827;28;20069;-61
2022/12/20 09:34:59;;;;;;;6.85;3.35;;;10.30;99.90;;;;;;5121239;28;20062;-61
2022/12/20 09:37:25;;;;;;;6.50;3.40;;;10.30;99.90;;;;;;5129975;28;20154;-61
2022/12/20 09:39:50;;;;;;;6.13;3.40;;;10.40;99.90;;;;;;5123719;28;20083;-59
2022/12/20 09:42:21;;;;;;;5.72;3.40;;;10.40;99.90;;;;;;5119640;28;20023;-61
2022/12/20 09:44:47;;;;;;;8.32;3.47;;;10.30;99.90;;;;;;5122513;28;20114;-62
2022/12/20 09:47:20;;;;;;;7.63;3.47;;;10.30;99.90;;;;;;5130088;28;20054;-62
2022/12/20 09:49:49;;;;;;;6.40;3.25;;;10.30;99.90;;;;;;5116428;28;20078;-62
2022/12/20 09:52:27;;;;;;;7.10;3.55;;;10.30;99.90;;;;;;5122128;28;20055;-62
2022/12/20 09:55:18;;;;;;;10.57;3.67;;;10.30;99.90;;;;;;5113772;28;20114;-61
2022/12/20 09:58:02;;;;;;;6.80;3.30;;;10.30;99.90;;;;;;5122652;28;20100;-61
2022/12/20 10:00:29;;;;;;;6.85;3.65;;;10.30;99.90;;;;;;5119114;28;20134;-61
2022/12/20 10:02:54;;;;;;;7.13;3.40;;;10.30;99.90;;;;;;5117763;28;20038;-62
2022/12/20 10:05:45;;;;;;;5.40;3.22;;;10.30;99.90;;;;;;5112278;28;20051;-61
2022/12/20 10:08:50;;;;;;;7.68;3.97;;;10.20;99.90;;;;;;5115067;28;20067;-62
2022/12/20 10:11:36;;;;;;;7.20;3.28;;;10.20;99.90;;;;;;5129434;28;20079;-62
2022/12/20 10:14:07;;;;;;;7.72;3.47;;;10.20;99.90;;;;;;5131272;28;20039;-62
2022/12/20 10:16:49;;;;;;;7.23;3.73;;;10.20;99.90;;;;;;5125831;28;20043;-64
2022/12/20 10:19:29;;;;;;;6.68;3.30;;;10.10;99.90;;;;;;5105098;28;20051;-64
2022/12/20 10:22:09;;;;;;;5.18;3.25;;;10.10;99.90;;;;;;5124778;28;20489;-63
2022/12/20 10:24:35;;;;;;;8.73;4.25;;;10.10;99.90;;;;;;5119518;28;20035;-64
2022/12/20 10:27:12;;;;;;;7.97;3.60;;;10.10;99.90;;;;;;5126336;28;20035;-62
2022/12/20 10:29:38;;;;;;;10.52;4.07;;;10.10;99.90;;;;;;5120953;28;20039;-64
2022/12/20 10:32:11;;;;;;;9.82;3.78;;;10.10;99.90;;;;;;5123890;27;20078;-63
2022/12/20 10:34:37;;;;;;;8.05;3.80;;;10.10;99.90;;;;;;5127766;27;20047;-61
2022/12/20 10:37:15;;;;;;;6.30;3.70;;;10.10;99.90;;;;;;5113996;27;20177;-64
2022/12/20 10:39:47;;;;;;;8.25;3.72;;;10.10;99.90;;;;;;5125740;27;20031;-63
2022/12/20 10:42:33;;;;;;;9.13;3.78;;;10.10;99.90;;;;;;5121706;27;20067;-62
2022/12/20 10:44:59;;;;;;;9.65;3.85;;;10.10;99.90;;;;;;5110205;27;20557;-63
2022/12/20 10:47:36;;;;;;;9.10;4.18;;;10.10;99.90;;;;;;5132303;27;20118;-64
2022/12/20 10:50:23;;;;;;;7.68;3.45;;;10.10;99.90;;;;;;5113982;27;20475;-63
2022/12/20 10:53:23;;;;;;;5.95;3.58;;;10.10;99.90;;;;;;5124365;27;20039;-64
2022/12/20 10:55:50;;;;;;;10.23;3.80;;;10.10;99.90;;;;;;5068094;27;20100;-63
2022/12/20 10:58:20;;;;;;;8.13;4.30;;;10.20;99.90;;;;;;5125057;27;20088;-63
2022/12/20 11:00:48;;;;;;;6.25;3.33;;;10.20;99.90;;;;;;5097832;27;20514;-63
2022/12/20 11:03:22;;;;;;;9.45;3.67;;;10.20;99.90;;;;;;5124359;27;20032;-63
2022/12/20 11:06:01;;;;;;;8.13;4.15;;;10.20;99.90;;;;;;5124049;27;20445;-64
2022/12/20 11:08:29;;;;;;;7.63;3.63;;;10.20;99.90;;;;;;5129181;27;20039;-63
2022/12/20 11:11:21;;;;;;;7.63;3.67;;;10.20;99.90;;;;;;5097993;27;20042;-63
2022/12/20 11:13:49;;;;;;;8.00;3.70;;;10.30;99.90;;;;;;5107410;27;20396;-63
2022/12/20 11:16:36;;;;;;;6.93;3.75;;;10.30;99.90;;;;;;5131582;27;20088;-64
2022/12/20 11:19:30;;;;;;;8.60;3.70;;;10.30;99.90;;;;;;5119719;27;20039;-64
2022/12/20 11:22:12;;;;;;;9.32;4.00;;;10.30;99.90;;;;;;5120183;27;20051;-63
2022/12/20 11:24:59;;;;;;;7.15;3.63;;;10.30;99.90;;;;;;5104088;28;20050;-63
2022/12/20 11:27:41;;;;;;;8.55;4.03;;;10.30;99.90;;;;;;5118803;27;20042;-63
2022/12/20 11:30:19;;;;;;;6.00;3.47;;;10.30;99.90;;;;;;5126234;27;20035;-62
2022/12/20 11:33:22;;;;;;;6.68;4.03;;;10.30;99.90;;;;;;5110587;27;20039;-63
2022/12/20 11:35:54;;;;;;;7.15;3.55;;;10.30;99.90;;;;;;5122899;27;20035;-64
2022/12/20 11:38:59;;;;;;;5.35;3.20;;;10.30;99.90;;;;;;5130299;27;20039;-63
2022/12/20 11:41:27;;;;;;;6.07;3.65;;;10.40;99.90;;;;;;5116966;27;20520;-63
2022/12/20 11:44:22;;;;;;;6.60;3.58;;;10.40;99.90;;;;;;5125706;27;20397;-62
2022/12/20 11:46:54;;;;;;;5.40;3.40;;;10.40;99.90;;;;;;5100939;27;20134;-63
2022/12/20 11:49:55;;;;;;;7.15;3.70;;;10.40;99.90;;;;;;5106810;27;20035;-64
2022/12/20 11:52:29;;;;;;;10.18;3.72;;;10.40;99.90;;;;;;5130464;27;20416;-64
2022/12/20 11:55:05;;;;;;;7.93;4.03;;;10.40;99.90;;;;;;5117661;27;20197;-63
2022/12/20 11:57:46;;;;;;;6.40;3.45;;;10.30;99.90;;;;;;5122363;27;20080;-64
2022/12/20 12:00:14;;;;;;;10.15;4.10;;;10.30;99.90;;;;;;5124366;27;20039;-64
2022/12/20 12:02:50;;;;;;;9.00;3.65;;;10.30;99.90;;;;;;5104501;27;20474;-63
2022/12/20 12:05:25;;;;;;;6.45;3.80;;;10.30;99.90;;;;;;5124277;27;20081;-63
2022/12/20 12:08:02;;;;;;;6.13;3.95;;;10.30;99.90;;;;;;5097919;27;20093;-64
2022/12/20 12:10:37;;;;;;;5.93;3.78;;;10.30;99.90;;;;;;5122577;27;20095;-63
2022/12/20 12:13:19;;;;;;;9.73;3.83;;;10.20;99.90;;;;;;5117953;27;20032;-64
2022/12/20 12:16:05;;;;;;;6.00;4.05;;;10.20;99.90;;;;;;5111220;27;20519;-63
2022/12/20 12:18:33;;;;;;;6.97;3.92;;;10.20;99.90;;;;;;5121349;27;20046;-63
2022/12/20 12:21:20;;;;;;;7.53;4.30;;;10.20;99.90;;;;;;5123204;27;20035;-63
2022/12/20 12:23:45;;;;;;;9.77;4.07;;;10.20;99.90;;;;;;5098292;28;20089;-63
2022/12/20 12:26:28;;;;;;;8.88;3.88;;;10.20;99.90;;;;;;5120869;27;20032;-63
2022/12/20 12:28:54;;;;;;;;;;;10.30;99.90;;;;;;5109160;27;20035;-63
2022/12/20 12:31:29;;;;;;;6.47;4.13;;;10.30;99.90;;;;;;5107723;27;19988;-63
2022/12/20 12:34:08;;;;;;;6.50;4.38;;;10.30;99.90;;;;;;5129379;27;20039;-63
2022/12/20 12:36:48;;;;;;;11.55;4.68;;;10.30;99.90;;;;;;5128463;27;20038;-63
2022/12/20 12:39:27;;;;;;;7.85;4.43;;;10.30;99.90;;;;;;5129066;27;20041;-63
2022/12/20 12:42:06;;;;;;;9.20;4.85;;;10.30;99.90;;;;;;5119706;27;20035;-64
2022/12/20 12:44:56;;;;;;;9.55;4.55;;;10.30;99.90;;;;;;5129972;27;20517;-63
2022/12/20 12:47:38;;;;;;;8.88;4.63;;;10.30;99.90;;;;;;5121534;27;20040;-63
2022/12/20 12:50:17;;;;;;;6.20;4.32;;;10.30;99.90;;;;;;5124187;27;20039;-63
2022/12/20 12:52:49;;;;;;;5.85;4.40;;;10.30;99.90;;;;;;5100930;28;20065;-62
2022/12/20 12:55:34;;;;;;;;;;;10.30;99.90;;;;;;5129049;27;20038;-63
2022/12/20 12:58:21;;;;;;;8.27;4.63;;;10.30;99.90;;;;;;5108418;27;19960;-63
2022/12/20 13:00:59;;;;;;;7.45;4.72;;;10.30;99.90;;;;;;5124080;27;20042;-63
2022/12/20 13:03:44;;;;;;;8.35;5.05;;;10.30;99.90;;;;;;5099623;27;20074;-63
2022/12/20 13:06:22;;;;;;;6.80;4.60;;;10.30;99.90;;;;;;5105374;27;20039;-64
2022/12/20 13:08:57;;;;;;;7.22;4.68;;;10.30;99.90;;;;;;5121666;27;20031;-63
2022/12/20 13:11:30;;;;;;;7.50;4.75;;;10.30;99.90;;;;;;5124015;27;20374;-62
2022/12/20 13:14:24;;;;;;;11.00;5.03;;;10.30;99.90;;;;;;5121522;27;20028;-63